createdAt,value
2014-06-10T00:00:36.015Z,44.57
2014-06-10T00:01:41.017Z,45.64
2014-06-10T00:02:45.707Z,46.31
2014-06-10T00:03:50.693Z,46.82
2014-06-10T00:04:55.383Z,46.37
2014-06-10T00:06:00.072Z,46.3
2014-06-10T00:07:04.761Z,46.79
2014-06-10T00:08:09.451Z,46.42
2014-06-10T00:09:14.141Z,46.76
2014-06-10T00:10:18.831Z,46.55
2014-06-10T00:11:23.520Z,45.64
2014-06-10T00:12:28.521Z,44.57
2014-06-10T00:13:33.507Z,44.81
2014-06-10T00:14:38.197Z,45.27
2014-06-10T00:15:42.886Z,45.52
2014-06-10T00:16:47.577Z,45.43
2014-06-10T00:17:52.266Z,45.09
2014-06-10T00:18:56.956Z,44.29
2014-06-10T00:20:01.645Z,45.61
2014-06-10T00:21:06.632Z,46.08
2014-06-10T00:22:11.620Z,46.35
2014-06-10T00:23:16.607Z,46.57
2014-06-10T00:24:21.593Z,46.81
2014-06-10T00:25:26.281Z,46.49
2014-06-10T00:26:30.971Z,46.43
2014-06-10T00:27:35.958Z,46.81
2014-06-10T00:28:40.647Z,45.9
2014-06-10T00:29:45.336Z,45.91
2014-06-10T00:30:50.323Z,46.39
2014-06-10T00:31:55.012Z,47.25
2014-06-10T00:32:59.999Z,48.13
2014-06-10T00:34:04.688Z,45.86
2014-06-10T00:35:09.393Z,46.36
2014-06-10T00:36:14.082Z,46.41
2014-06-10T00:37:18.771Z,46.65
2014-06-10T00:38:23.463Z,46.15
2014-06-10T00:39:28.152Z,46.53
2014-06-10T00:40:32.842Z,47.48
2014-06-10T00:41:37.828Z,46.96
2014-06-10T00:42:42.518Z,47.42
2014-06-10T00:43:47.208Z,47.49
2014-06-10T00:44:51.897Z,46.34
2014-06-10T00:45:56.586Z,45.66
2014-06-10T00:47:01.572Z,45.66
2014-06-10T00:48:06.559Z,45.34
2014-06-10T00:49:11.248Z,45.28
2014-06-10T00:50:15.937Z,45.14
2014-06-10T00:51:19.940Z,45.3
2014-06-10T00:52:24.629Z,45.04
2014-06-10T00:53:29.321Z,45.27
2014-06-10T00:54:34.306Z,45.43
2014-06-10T00:55:38.996Z,45.21
2014-06-10T00:56:43.686Z,45.46
2014-06-10T00:57:48.969Z,45.34
2014-06-10T00:58:53.659Z,45.02
2014-06-10T00:59:58.347Z,45.21
2014-06-10T01:01:03.334Z,45.59
2014-06-10T01:02:08.023Z,45.59
2014-06-10T01:03:13.010Z,46.44
2014-06-10T01:04:17.997Z,46.48
2014-06-10T01:05:22.702Z,46.38
2014-06-10T01:06:27.689Z,47.88
2014-06-10T01:07:32.674Z,45.63
2014-06-10T01:08:36.974Z,46.22
2014-06-10T01:09:41.663Z,45.9
2014-06-10T01:10:46.353Z,46.31
2014-06-10T01:11:51.042Z,46.92
2014-06-10T01:12:56.029Z,47.04
2014-06-10T01:14:00.718Z,47.91
2014-06-10T01:15:05.408Z,48
2014-06-10T01:16:10.097Z,46.94
2014-06-10T01:17:15.084Z,46.33
2014-06-10T01:18:19.772Z,46.52
2014-06-10T01:19:24.464Z,47.59
2014-06-10T01:20:29.169Z,47.9
2014-06-10T01:21:34.155Z,48.61
2014-06-10T01:22:38.845Z,49.21
2014-06-10T01:23:43.534Z,49.37
2014-06-10T01:24:48.520Z,49.58
2014-06-10T01:25:53.210Z,49.49
2014-06-10T01:26:58.196Z,49.49
2014-06-10T01:28:02.885Z,49.95
2014-06-10T01:29:07.574Z,49.61
2014-06-10T01:30:12.265Z,48.91
2014-06-10T01:31:16.954Z,48.2
2014-06-10T01:32:21.644Z,48.06
2014-06-10T01:33:26.631Z,49.02
2014-06-10T01:34:31.321Z,49.04
2014-06-10T01:35:36.010Z,48.51
2014-06-10T01:36:40.997Z,49.09
2014-06-10T01:37:45.686Z,50.05
2014-06-10T01:38:50.672Z,49.83
2014-06-10T01:39:55.362Z,50.41
2014-06-10T01:41:00.348Z,50.62
2014-06-10T01:42:05.037Z,50.62
2014-06-10T01:43:09.727Z,48.94
2014-06-10T01:44:14.416Z,49.1
2014-06-10T01:45:19.402Z,49.49
2014-06-10T01:46:24.092Z,50.23
2014-06-10T01:47:29.081Z,50.21
2014-06-10T01:48:33.770Z,50.48
2014-06-10T01:49:38.756Z,49.55
2014-06-10T01:50:43.445Z,49.4
2014-06-10T01:51:48.432Z,48.46
2014-06-10T01:52:53.121Z,49.93
2014-06-10T01:53:57.811Z,49.6
2014-06-10T01:55:02.500Z,49.47
2014-06-10T01:56:07.190Z,49.22
2014-06-10T01:57:12.176Z,48.66
2014-06-10T01:58:16.866Z,50.02
2014-06-10T01:59:21.868Z,50.05
2014-06-10T02:00:26.556Z,50.44
2014-06-10T02:01:31.248Z,49.05
2014-06-10T02:02:36.234Z,48.95
2014-06-10T02:03:40.924Z,48.75
2014-06-10T02:04:45.910Z,49.17
2014-06-10T02:05:51.193Z,49.62
2014-06-10T02:06:56.180Z,49.68
2014-06-10T02:08:00.869Z,49.56
2014-06-10T02:09:05.558Z,49.72
2014-06-10T02:10:10.247Z,49.05
2014-06-10T02:11:15.531Z,49.79
2014-06-10T02:12:20.221Z,49.24
2014-06-10T02:13:24.909Z,50.02
2014-06-10T02:14:29.600Z,49.94
2014-06-10T02:15:34.288Z,49.44
2014-06-10T02:16:38.980Z,49.66
2014-06-10T02:17:43.966Z,50.31
2014-06-10T02:18:48.656Z,50.22
2014-06-10T02:19:53.939Z,49.2
2014-06-10T02:20:58.925Z,50.41
2014-06-10T02:22:03.615Z,50.06
2014-06-10T02:23:08.601Z,49.32
2014-06-10T02:24:13.588Z,49.67
2014-06-10T02:25:18.574Z,49.99
2014-06-10T02:26:23.560Z,50.35
2014-06-10T02:27:28.547Z,49.94
2014-06-10T02:28:33.235Z,49.23
2014-06-10T02:29:38.224Z,48.52
2014-06-10T02:30:43.210Z,49.52
2014-06-10T02:31:47.899Z,49.89
2014-06-10T02:32:52.589Z,50.74
2014-06-10T02:33:57.278Z,50.98
2014-06-10T02:35:02.265Z,50.35
2014-06-10T02:36:06.954Z,50.07
2014-06-10T02:37:11.941Z,50.25
2014-06-10T02:38:16.927Z,50.81
2014-06-10T02:39:21.616Z,49.95
2014-06-10T02:40:26.602Z,49.61
2014-06-10T02:41:31.589Z,50.46
2014-06-10T02:42:36.278Z,49.98
2014-06-10T02:43:40.967Z,50.83
2014-06-10T02:44:45.659Z,51.04
2014-06-10T02:45:50.348Z,50.73
2014-06-10T02:46:55.038Z,50.06
2014-06-10T02:47:59.727Z,50.88
2014-06-10T02:49:05.011Z,50.32
2014-06-10T02:50:09.013Z,50.79
2014-06-10T02:51:13.702Z,50.8
2014-06-10T02:52:18.391Z,50.75
2014-06-10T02:53:23.081Z,51.88
2014-06-10T02:54:28.067Z,50.99
2014-06-10T02:55:32.756Z,50.94
2014-06-10T02:56:37.446Z,51.89
2014-06-10T02:57:42.136Z,52.42
2014-06-10T02:58:46.825Z,51.32
2014-06-10T02:59:51.515Z,52.07
2014-06-10T03:00:56.205Z,52.11
2014-06-10T03:02:00.896Z,52.01
2014-06-10T03:03:05.584Z,51.24
2014-06-10T03:04:10.571Z,51.28
2014-06-10T03:05:15.260Z,51.44
2014-06-10T03:06:20.247Z,50.97
2014-06-10T03:07:25.232Z,51.25
2014-06-10T03:08:29.923Z,52.31
2014-06-10T03:09:34.612Z,51.55
2014-06-10T03:10:39.301Z,50.89
2014-06-10T03:11:43.990Z,50.5
2014-06-10T03:12:48.681Z,50.32
2014-06-10T03:13:53.666Z,50.93
2014-06-10T03:14:58.357Z,50.83
2014-06-10T03:16:03.344Z,50.56
2014-06-10T03:17:08.330Z,50.48
2014-06-10T03:18:13.317Z,51.02
2014-06-10T03:19:18.006Z,51.42
2014-06-10T03:20:22.696Z,51.36
2014-06-10T03:21:27.682Z,52.17
2014-06-10T03:22:32.370Z,51.73
2014-06-10T03:23:37.060Z,50.55
2014-06-10T03:24:41.750Z,51.52
2014-06-10T03:25:46.439Z,51.57
2014-06-10T03:26:51.128Z,50.53
2014-06-10T03:27:55.818Z,50.72
2014-06-10T03:29:00.509Z,50.85
2014-06-10T03:30:05.199Z,50.31
2014-06-10T03:31:10.185Z,50.55
2014-06-10T03:32:15.172Z,50.58
2014-06-10T03:33:20.158Z,50.93
2014-06-10T03:34:24.848Z,50.85
2014-06-10T03:35:29.537Z,51.68
2014-06-10T03:36:34.227Z,51.74
2014-06-10T03:37:38.916Z,50.65
2014-06-10T03:38:43.606Z,50.72
2014-06-10T03:39:48.295Z,50.89
2014-06-10T03:40:53.281Z,51.26
2014-06-10T03:41:57.283Z,51
2014-06-10T03:43:01.285Z,51.45
2014-06-10T03:44:06.272Z,52.05
2014-06-10T03:45:10.961Z,52.43
2014-06-10T03:46:15.651Z,52.75
2014-06-10T03:47:20.340Z,51.87
2014-06-10T03:48:25.030Z,52.2
2014-06-10T03:49:30.017Z,52.13
2014-06-10T03:50:34.706Z,52.21
2014-06-10T03:51:39.692Z,51.8
2014-06-10T03:52:44.382Z,51.54
2014-06-10T03:53:49.071Z,51.87
2014-06-10T03:54:54.057Z,51.84
2014-06-10T03:55:58.749Z,51.97
2014-06-10T03:57:03.735Z,52.38
2014-06-10T03:58:08.425Z,52.57
2014-06-10T03:59:13.114Z,52.1
2014-06-10T04:00:18.113Z,50.76
2014-06-10T04:01:22.841Z,50.35
2014-06-10T04:02:27.569Z,50.16
2014-06-10T04:03:32.297Z,49.78
2014-06-10T04:04:37.026Z,49.11
2014-06-10T04:05:41.746Z,48.9
2014-06-10T04:06:46.451Z,49.68
2014-06-10T04:07:51.450Z,50.4
2014-06-10T04:08:56.153Z,50.74
2014-06-10T04:10:01.153Z,51.34
2014-06-10T04:11:05.853Z,51.72
2014-06-10T04:12:10.555Z,52.1
2014-06-10T04:13:15.249Z,52.65
2014-06-10T04:14:20.240Z,52.17
2014-06-10T04:15:24.933Z,52.12
2014-06-10T04:16:29.923Z,52.25
2014-06-10T04:17:34.630Z,52.06
2014-06-10T04:18:39.617Z,51.36
2014-06-10T04:19:44.293Z,51.01
2014-06-10T04:20:48.984Z,50.95
2014-06-10T04:21:53.674Z,52.34
2014-06-10T04:22:58.957Z,52.12
2014-06-10T04:24:03.647Z,52.33
2014-06-10T04:25:08.633Z,51.84
2014-06-10T04:26:13.623Z,51.24
2014-06-10T04:27:18.312Z,51.38
2014-06-10T04:28:23.002Z,50.83
2014-06-10T04:29:27.692Z,50.4
2014-06-10T04:30:32.678Z,50.23
2014-06-10T04:31:37.368Z,50.37
2014-06-10T04:32:42.057Z,50.29
2014-06-10T04:33:46.747Z,50.16
2014-06-10T04:34:51.436Z,50.3
2014-06-10T04:35:56.126Z,49.91
2014-06-10T04:37:00.815Z,51.29
2014-06-10T04:38:05.802Z,50.64
2014-06-10T04:39:11.085Z,51.57
2014-06-10T04:40:15.777Z,51.32
2014-06-10T04:41:20.466Z,50.94
2014-06-10T04:42:25.452Z,50.11
2014-06-10T04:43:30.158Z,48.68
2014-06-10T04:44:35.144Z,48.35
2014-06-10T04:45:39.833Z,48.13
2014-06-10T04:46:44.522Z,48.66
2014-06-10T04:47:49.507Z,47.75
2014-06-10T04:48:54.495Z,47.44
2014-06-10T04:49:59.480Z,48.56
2014-06-10T04:51:04.483Z,49.46
2014-06-10T04:52:09.468Z,50.32
2014-06-10T04:53:14.159Z,49.48
2014-06-10T04:54:19.144Z,48.86
2014-06-10T04:55:23.149Z,48.87
2014-06-10T04:56:28.432Z,47.94
2014-06-10T04:57:33.121Z,48.44
2014-06-10T04:58:37.811Z,47.75
2014-06-10T04:59:42.500Z,46.18
2014-06-10T05:00:47.205Z,44.7
2014-06-10T05:01:51.895Z,44.25
2014-06-10T05:02:56.881Z,44.7
2014-06-10T05:04:01.571Z,44.13
2014-06-10T05:05:06.260Z,45.46
2014-06-10T05:06:10.949Z,44.47
2014-06-10T05:07:15.639Z,44.99
2014-06-10T05:08:20.328Z,44.82
2014-06-10T05:09:25.316Z,44.93
2014-06-10T05:10:30.005Z,44.86
2014-06-10T05:11:34.695Z,44.78
2014-06-10T05:12:39.384Z,44.07
2014-06-10T05:13:44.371Z,44.07
2014-06-10T05:14:49.357Z,44.36
2014-06-10T05:15:54.343Z,44.37
2014-06-10T05:16:59.033Z,44.02
2014-06-10T05:18:03.738Z,43.79
2014-06-10T05:19:08.427Z,43.7
2014-06-10T05:20:13.117Z,42.67
2014-06-10T05:21:17.806Z,42.79
2014-06-10T05:22:22.496Z,42.19
2014-06-10T05:23:27.201Z,42.31
2014-06-10T05:24:31.891Z,41.91
2014-06-10T05:25:36.580Z,42.21
2014-06-10T05:26:41.269Z,41.94
2014-06-10T05:27:45.959Z,42.62
2014-06-10T05:28:50.649Z,42.15
2014-06-10T05:29:55.635Z,42.93
2014-06-10T05:31:00.327Z,42.81
2014-06-10T05:32:05.329Z,42
2014-06-10T05:33:10.003Z,42.8
2014-06-10T05:34:14.692Z,42.59
2014-06-10T05:35:19.694Z,42.89
2014-06-10T05:36:24.679Z,43.24
2014-06-10T05:37:29.667Z,43.16
2014-06-10T05:38:34.356Z,42.55
2014-06-10T05:39:39.046Z,42.45
2014-06-10T05:40:43.750Z,42.54
2014-06-10T05:41:48.440Z,42.32
2014-06-10T05:42:53.130Z,42.86
2014-06-10T05:43:57.818Z,43.02
2014-06-10T05:45:02.524Z,42.79
2014-06-10T05:46:07.510Z,43.06
2014-06-10T05:47:12.199Z,43.27
2014-06-10T05:48:16.889Z,42.35
2014-06-10T05:49:21.580Z,42.64
2014-06-10T05:50:26.270Z,42.3
2014-06-10T05:51:31.256Z,42.75
2014-06-10T05:52:35.946Z,42.26
2014-06-10T05:53:40.635Z,41.68
2014-06-10T05:54:45.636Z,41.03
2014-06-10T05:55:50.624Z,40.9
2014-06-10T05:56:55.313Z,41.23
2014-06-10T05:58:00.300Z,42.35
2014-06-10T05:59:05.301Z,43.41
2014-06-10T06:00:09.991Z,43.76
2014-06-10T06:01:14.680Z,44.27
2014-06-10T06:02:19.369Z,45.79
2014-06-10T06:03:24.076Z,45.25
2014-06-10T06:04:29.063Z,46.54
2014-06-10T06:05:34.048Z,46.39
2014-06-10T06:06:38.738Z,47.49
2014-06-10T06:07:43.428Z,47.06
2014-06-10T06:08:48.414Z,47.64
2014-06-10T06:09:53.104Z,48.28
2014-06-10T06:10:57.793Z,50.35
2014-06-10T06:12:02.482Z,49.28
2014-06-10T06:13:07.171Z,49.25
2014-06-10T06:14:12.158Z,50.08
2014-06-10T06:15:16.847Z,49.17
2014-06-10T06:16:21.537Z,49.12
2014-06-10T06:17:26.226Z,48.35
2014-06-10T06:18:30.918Z,49.1
2014-06-10T06:19:35.607Z,49.45
2014-06-10T06:20:40.890Z,47.69
2014-06-10T06:21:45.580Z,48.87
2014-06-10T06:22:50.269Z,43.85
2014-06-10T06:23:55.256Z,45.43
2014-06-10T06:24:59.945Z,44.94
2014-06-10T06:26:04.931Z,43.76
2014-06-10T06:27:09.621Z,48.03
2014-06-10T06:28:14.326Z,44.5
2014-06-10T06:29:18.999Z,43.68
2014-06-10T06:30:23.689Z,47.16
2014-06-10T06:31:28.379Z,45.11
2014-06-10T06:32:33.068Z,45.63
2014-06-10T06:33:38.056Z,43.78
2014-06-10T06:34:42.058Z,43.89
2014-06-10T06:35:46.763Z,43.46
2014-06-10T06:36:51.750Z,44.36
2014-06-10T06:37:56.736Z,43.25
2014-06-10T06:39:01.425Z,43.23
2014-06-10T06:40:06.709Z,42.19
2014-06-10T06:41:11.397Z,41.81
2014-06-10T06:42:16.088Z,41.92
2014-06-10T06:43:21.074Z,42.77
2014-06-10T06:44:25.764Z,43.75
2014-06-10T06:45:30.750Z,44.18
2014-06-10T06:46:35.439Z,45.17
2014-06-10T06:47:40.130Z,46.87
2014-06-10T06:48:45.413Z,46.7
2014-06-10T06:49:50.103Z,45.38
2014-06-10T06:50:54.791Z,44.44
2014-06-10T06:51:59.779Z,44.11
2014-06-10T06:53:03.781Z,44.87
2014-06-10T06:54:08.470Z,44.1
2014-06-10T06:55:13.160Z,42.68
2014-06-10T06:56:17.849Z,44.48
2014-06-10T06:57:22.835Z,42.09
2014-06-10T06:58:27.524Z,42.1
2014-06-10T06:59:32.213Z,42.49
2014-06-10T07:00:37.497Z,42.21
2014-06-10T07:01:42.204Z,41.38
2014-06-10T07:02:46.893Z,41.93
2014-06-10T07:03:51.583Z,41.01
2014-06-10T07:04:56.272Z,41.13
2014-06-10T07:06:01.555Z,41.14
2014-06-10T07:07:06.558Z,41.17
2014-06-10T07:08:11.246Z,40.44
2014-06-10T07:09:15.249Z,40.12
2014-06-10T07:10:19.939Z,39.43
2014-06-10T07:11:24.940Z,39.84
2014-06-10T07:12:29.630Z,39.52
2014-06-10T07:13:34.913Z,39.54
2014-06-10T07:14:39.603Z,40.3
2014-06-10T07:15:44.291Z,41.01
2014-06-10T07:16:48.293Z,40.35
2014-06-10T07:17:53.295Z,39.8
2014-06-10T07:18:58.579Z,39.16
2014-06-10T07:20:03.268Z,38.04
2014-06-10T07:21:08.254Z,37.87
2014-06-10T07:22:13.256Z,37.73
2014-06-10T07:23:18.243Z,38.19
2014-06-10T07:24:23.230Z,36.17
2014-06-10T07:25:27.922Z,36.37
2014-06-10T07:26:32.627Z,37.64
2014-06-10T07:27:37.316Z,37.05
2014-06-10T07:28:42.006Z,36.89
2014-06-10T07:29:46.695Z,36.31
2014-06-10T07:30:51.385Z,35.91
2014-06-10T07:31:56.073Z,35.71
2014-06-10T07:33:01.075Z,35.57
2014-06-10T07:34:06.062Z,35.23
2014-06-10T07:35:10.752Z,35.49
2014-06-10T07:36:15.067Z,34.41
2014-06-10T07:37:19.756Z,34.42
2014-06-10T07:38:23.757Z,32.7
2014-06-10T07:39:28.447Z,32.73
2014-06-10T07:40:33.136Z,33.26
2014-06-10T07:41:37.841Z,32.85
2014-06-10T07:42:42.531Z,33.15
2014-06-10T07:43:47.221Z,33.31
2014-06-10T07:44:51.911Z,34.25
2014-06-10T07:45:56.616Z,33.87
2014-06-10T07:47:01.305Z,34.72
2014-06-10T07:48:05.996Z,33.52
2014-06-10T07:49:10.701Z,32.17
2014-06-10T07:50:15.686Z,31.81
2014-06-10T07:51:20.376Z,32.68
2014-06-10T07:52:25.081Z,32.56
2014-06-10T07:53:29.771Z,32.87
2014-06-10T07:54:34.460Z,33.03
2014-06-10T07:55:39.165Z,32.83
2014-06-10T07:56:44.152Z,32.53
2014-06-10T07:57:48.842Z,32.73
2014-06-10T07:58:53.845Z,31.81
2014-06-10T07:59:58.831Z,31.86
2014-06-10T08:01:03.521Z,32.12
2014-06-10T08:02:08.506Z,32.13
2014-06-10T08:03:13.196Z,32.63
2014-06-10T08:04:18.183Z,32.27
2014-06-10T08:05:22.887Z,32.29
2014-06-10T08:06:27.889Z,31.92
2014-06-10T08:07:32.579Z,31.7
2014-06-10T08:08:37.564Z,32.49
2014-06-10T08:09:42.567Z,31.42
2014-06-10T08:10:47.257Z,31.56
2014-06-10T08:11:51.947Z,31.96
2014-06-10T08:12:56.637Z,32.25
2014-06-10T08:14:01.342Z,32.13
2014-06-10T08:15:06.328Z,33.44
2014-06-10T08:16:11.018Z,32.38
2014-06-10T08:17:15.707Z,32.49
2014-06-10T08:18:20.412Z,31.96
2014-06-10T08:19:25.102Z,32.23
2014-06-10T08:20:29.104Z,33.8
2014-06-10T08:21:33.809Z,32.4
2014-06-10T08:22:38.795Z,32.44
2014-06-10T08:23:43.797Z,32.47
2014-06-10T08:24:48.096Z,33.63
2014-06-10T08:25:53.397Z,32.67
2014-06-10T08:26:58.087Z,31.55
2014-06-10T08:28:02.775Z,31.06
2014-06-10T08:29:07.481Z,31.4
2014-06-10T08:30:12.171Z,31.9
2014-06-10T08:31:17.454Z,32.54
2014-06-10T08:32:22.752Z,31.53
2014-06-10T08:33:28.051Z,31.98
2014-06-10T08:34:33.037Z,31.43
2014-06-10T08:35:37.742Z,31
2014-06-10T08:36:42.432Z,31.53
2014-06-10T08:37:47.714Z,31.34
2014-06-10T08:38:52.403Z,32.09
2014-06-10T08:39:57.705Z,31.82
2014-06-10T08:41:02.394Z,31.77
2014-06-10T08:42:07.381Z,32.36
2014-06-10T08:43:12.086Z,31.21
2014-06-10T08:44:16.776Z,32.17
2014-06-10T08:45:21.464Z,32.05
2014-06-10T08:46:26.466Z,32.48
2014-06-10T08:47:31.156Z,32.43
2014-06-10T08:48:36.142Z,32.35
2014-06-10T08:49:40.847Z,32.23
2014-06-10T08:50:45.834Z,31.3
2014-06-10T08:51:50.539Z,31.61
2014-06-10T08:52:55.228Z,30.66
2014-06-10T08:54:00.215Z,30.97
2014-06-10T08:55:04.921Z,30.97
2014-06-10T08:56:09.611Z,30.9
2014-06-10T08:57:14.301Z,32.75
2014-06-10T08:58:18.989Z,32.06
2014-06-10T08:59:23.694Z,30.98
2014-06-10T09:00:28.682Z,31.16
2014-06-10T09:01:33.684Z,30.69
2014-06-10T09:02:38.372Z,30.27
2014-06-10T09:03:42.671Z,30.53
2014-06-10T09:04:47.376Z,31.4
2014-06-10T09:05:52.067Z,31.35
2014-06-10T09:06:57.068Z,29.98
2014-06-10T09:08:01.757Z,30.55
2014-06-10T09:09:06.759Z,30.11
2014-06-10T09:10:11.747Z,30.33
2014-06-10T09:11:16.436Z,29.51
2014-06-10T09:12:21.126Z,29.48
2014-06-10T09:13:25.831Z,29.9
2014-06-10T09:14:30.817Z,30.05
2014-06-10T09:15:35.803Z,29.92
2014-06-10T09:16:40.508Z,29.62
2014-06-10T09:17:45.197Z,29.69
2014-06-10T09:18:50.186Z,30.23
2014-06-10T09:19:55.189Z,32.34
2014-06-10T09:21:00.174Z,29.83
2014-06-10T09:22:04.879Z,31.15
2014-06-10T09:23:09.865Z,30.59
2014-06-10T09:24:14.571Z,30.49
2014-06-10T09:25:19.260Z,31.19
2014-06-10T09:26:23.965Z,30.58
2014-06-10T09:27:29.248Z,30.37
2014-06-10T09:28:34.250Z,30.59
2014-06-10T09:29:38.940Z,29.65
2014-06-10T09:30:43.926Z,30.56
2014-06-10T09:31:48.630Z,30.62
2014-06-10T09:32:53.633Z,29.94
2014-06-10T09:33:58.323Z,29.38
2014-06-10T09:35:03.308Z,30.54
2014-06-10T09:36:08.016Z,31.27
2014-06-10T09:37:12.705Z,31.73
2014-06-10T09:38:17.394Z,31.24
2014-06-10T09:39:22.397Z,31.5
2014-06-10T09:40:27.383Z,31.53
2014-06-10T09:41:32.072Z,31.24
2014-06-10T09:42:36.778Z,31.78
2014-06-10T09:43:41.467Z,30.86
2014-06-10T09:44:46.766Z,31.46
2014-06-10T09:45:51.752Z,30.91
2014-06-10T09:46:56.457Z,31.13
2014-06-10T09:48:01.459Z,30.7
2014-06-10T09:49:06.446Z,30.93
2014-06-10T09:50:11.151Z,30.21
2014-06-10T09:51:15.842Z,30.38
2014-06-10T09:52:20.843Z,30.58
2014-06-10T09:53:26.128Z,30.87
2014-06-10T09:54:30.816Z,29.92
2014-06-10T09:55:35.521Z,30.36
2014-06-10T09:56:40.523Z,30.98
2014-06-10T09:57:45.213Z,31.58
2014-06-10T09:58:49.902Z,31.44
2014-06-10T09:59:54.904Z,31.08
2014-06-10T10:00:59.594Z,30.49
2014-06-10T10:02:04.283Z,30.51
2014-06-10T10:03:08.987Z,30.71
2014-06-10T10:04:13.678Z,30.74
2014-06-10T10:05:18.367Z,30.17
2014-06-10T10:06:23.666Z,30.04
2014-06-10T10:07:28.965Z,30.79
2014-06-10T10:08:34.264Z,31.1
2014-06-10T10:09:38.971Z,32.52
2014-06-10T10:10:43.972Z,31.25
2014-06-10T10:11:48.663Z,30.64
2014-06-10T10:12:53.665Z,30.62
2014-06-10T10:13:58.650Z,30.57
2014-06-10T10:15:03.340Z,30.4
2014-06-10T10:16:08.046Z,31.36
2014-06-10T10:17:12.735Z,30.61
2014-06-10T10:18:17.440Z,30.67
2014-06-10T10:19:22.130Z,30.55
2014-06-10T10:20:27.132Z,30.52
2014-06-10T10:21:31.821Z,30.47
2014-06-10T10:22:36.808Z,30.34
2014-06-10T10:23:41.513Z,30.17
2014-06-10T10:24:46.202Z,30.06
2014-06-10T10:25:51.517Z,30.66
2014-06-10T10:26:56.518Z,29.56
2014-06-10T10:28:01.223Z,29.73
2014-06-10T10:29:05.227Z,29.24
2014-06-10T10:30:10.229Z,28.9
2014-06-10T10:31:14.918Z,29.06
2014-06-10T10:32:19.607Z,29.02
2014-06-10T10:33:24.610Z,28.98
2014-06-10T10:34:29.299Z,29.26
2014-06-10T10:35:33.989Z,29.66
2014-06-10T10:36:38.694Z,29.69
2014-06-10T10:37:43.679Z,29.06
2014-06-10T10:38:48.385Z,29.07
2014-06-10T10:39:53.372Z,28.9
2014-06-10T10:40:58.076Z,29.05
2014-06-10T10:42:03.062Z,29.01
2014-06-10T10:43:07.769Z,29.38
2014-06-10T10:44:12.756Z,29.44
2014-06-10T10:45:17.461Z,28.57
2014-06-10T10:46:22.166Z,28.19
2014-06-10T10:47:26.856Z,28.57
2014-06-10T10:48:31.560Z,29.89
2014-06-10T10:49:36.250Z,29.95
2014-06-10T10:50:41.532Z,29.76
2014-06-10T10:51:46.238Z,29.68
2014-06-10T10:52:50.928Z,29.35
2014-06-10T10:53:55.632Z,30.1
2014-06-10T10:55:00.322Z,29.19
2014-06-10T10:56:05.028Z,28.46
2014-06-10T10:57:09.733Z,29.56
2014-06-10T10:58:14.423Z,28.44
2014-06-10T10:59:19.129Z,29.01
2014-06-10T11:00:23.818Z,28.69
2014-06-10T11:01:28.508Z,28.28
2014-06-10T11:02:33.213Z,29.35
2014-06-10T11:03:38.199Z,29.18
2014-06-10T11:04:43.185Z,29.02
2014-06-10T11:05:47.891Z,30.07
2014-06-10T11:06:52.877Z,28.72
2014-06-10T11:07:57.582Z,28.66
2014-06-10T11:09:02.271Z,29.38
2014-06-10T11:10:07.274Z,30.21
2014-06-10T11:11:11.963Z,29.26
2014-06-10T11:12:16.652Z,29.56
2014-06-10T11:13:21.654Z,29.6
2014-06-10T11:14:26.345Z,29.27
2014-06-10T11:15:31.347Z,30.08
2014-06-10T11:16:36.037Z,29.08
2014-06-10T11:17:41.023Z,28.67
2014-06-10T11:18:45.728Z,28.34
2014-06-10T11:19:50.418Z,28.87
2014-06-10T11:20:55.107Z,28.8
2014-06-10T11:22:00.108Z,28.62
2014-06-10T11:23:04.799Z,28.49
2014-06-10T11:24:09.488Z,28.88
2014-06-10T11:25:14.192Z,28.55
2014-06-10T11:26:19.179Z,28.76
2014-06-10T11:27:23.884Z,29.5
2014-06-10T11:28:29.170Z,29.15
2014-06-10T11:29:34.171Z,28.26
2014-06-10T11:30:38.860Z,28.44
2014-06-10T11:31:43.565Z,28.95
2014-06-10T11:32:48.255Z,29.47
2014-06-10T11:33:52.945Z,29.41
2014-06-10T11:34:57.650Z,29.72
2014-06-10T11:36:02.339Z,29.98
2014-06-10T11:37:07.043Z,28.79
2014-06-10T11:38:12.031Z,27.98
2014-06-10T11:39:16.735Z,28.2
2014-06-10T11:40:21.722Z,28.71
2014-06-10T11:41:26.412Z,29.73
2014-06-10T11:42:31.711Z,29.39
2014-06-10T11:43:36.697Z,28.9
2014-06-10T11:44:41.700Z,29.39
2014-06-10T11:45:46.687Z,29.04
2014-06-10T11:46:51.392Z,28.83
2014-06-10T11:47:56.081Z,29.35
2014-06-10T11:49:00.770Z,27.6
2014-06-10T11:50:05.771Z,27.65
2014-06-10T11:51:10.759Z,28.38
2014-06-10T11:52:15.464Z,28.36
2014-06-10T11:53:20.152Z,28.49
2014-06-10T11:54:24.843Z,28.94
2014-06-10T11:55:29.548Z,28.75
2014-06-10T11:56:34.238Z,28.62
2014-06-10T11:57:38.943Z,28.48
2014-06-10T11:58:43.945Z,29.07
2014-06-10T11:59:48.634Z,28.43
2014-06-10T12:00:53.637Z,28.49
2014-06-10T12:01:58.326Z,28.77
2014-06-10T12:03:03.031Z,28.37
2014-06-10T12:04:07.720Z,28.55
2014-06-10T12:05:12.410Z,28.3
2014-06-10T12:06:17.115Z,28.55
2014-06-10T12:07:21.804Z,28.48
2014-06-10T12:08:26.822Z,28.6
2014-06-10T12:09:31.842Z,27.98
2014-06-10T12:10:36.547Z,28.22
2014-06-10T12:11:41.532Z,27.77
2014-06-10T12:12:46.238Z,26.99
2014-06-10T12:13:50.928Z,27.09
2014-06-10T12:14:55.617Z,27.12
2014-06-10T12:16:00.321Z,27.93
2014-06-10T12:17:05.011Z,27.4
2014-06-10T12:18:09.716Z,27.23
2014-06-10T12:19:14.703Z,27.55
2014-06-10T12:20:19.704Z,27.88
2014-06-10T12:21:24.395Z,27.66
2014-06-10T12:22:29.396Z,27.51
2014-06-10T12:23:34.085Z,28.32
2014-06-10T12:24:39.089Z,28.15
2014-06-10T12:25:43.779Z,28.15
2014-06-10T12:26:48.780Z,27.5
2014-06-10T12:27:53.470Z,27.21
2014-06-10T12:28:58.159Z,27.15
2014-06-10T12:30:02.865Z,27.37
2014-06-10T12:31:07.851Z,27.86
2014-06-10T12:32:12.853Z,27.76
2014-06-10T12:33:17.543Z,27.79
2014-06-10T12:34:22.232Z,27.57
2014-06-10T12:35:26.937Z,27.86
2014-06-10T12:36:31.626Z,27.88
2014-06-10T12:37:36.316Z,27.48
2014-06-10T12:38:41.318Z,27.95
2014-06-10T12:39:46.618Z,27.36
2014-06-10T12:40:51.605Z,27.61
2014-06-10T12:41:56.310Z,26.89
2014-06-10T12:43:00.998Z,27.73
2014-06-10T12:44:05.705Z,27.72
2014-06-10T12:45:10.393Z,27.89
2014-06-10T12:46:15.083Z,26.43
2014-06-10T12:47:19.788Z,27.48
2014-06-10T12:48:24.477Z,28.24
2014-06-10T12:49:29.464Z,27.64
2014-06-10T12:50:34.169Z,26.75
2014-06-10T12:51:38.889Z,27.63
2014-06-10T12:52:43.579Z,27.44
2014-06-10T12:53:48.583Z,27.08
2014-06-10T12:54:53.272Z,27.24
2014-06-10T12:55:58.570Z,27.29
2014-06-10T12:57:03.854Z,26.71
2014-06-10T12:58:08.560Z,27.77
2014-06-10T12:59:13.248Z,27.68
2014-06-10T13:00:17.939Z,27.19
2014-06-10T13:01:22.941Z,26.9
2014-06-10T13:02:27.630Z,26.36
2014-06-10T13:03:32.334Z,26.68
2014-06-10T13:04:37.337Z,27.72
2014-06-10T13:05:42.324Z,26.96
2014-06-10T13:06:47.028Z,26.37
2014-06-10T13:07:52.351Z,26.56
2014-06-10T13:08:57.137Z,27.13
2014-06-10T13:10:01.866Z,27.21
2014-06-10T13:11:06.611Z,26.9
2014-06-10T13:12:11.314Z,26.79
2014-06-10T13:13:16.316Z,27.58
2014-06-10T13:14:21.035Z,27.49
2014-06-10T13:15:26.034Z,27.24
2014-06-10T13:16:31.050Z,26.98
2014-06-10T13:17:36.339Z,26.49
2014-06-10T13:18:41.346Z,26.87
2014-06-10T13:19:46.040Z,28.03
2014-06-10T13:20:51.048Z,26.89
2014-06-10T13:21:56.038Z,26.87
2014-06-10T13:23:01.046Z,27.41
2014-06-10T13:24:05.738Z,27.35
2014-06-10T13:25:10.741Z,27.57
2014-06-10T13:26:15.432Z,26.95
2014-06-10T13:27:20.138Z,26.92
2014-06-10T13:28:24.828Z,26.48
2014-06-10T13:29:29.518Z,27.4
2014-06-10T13:30:34.506Z,26.9
2014-06-10T13:31:39.212Z,26.87
2014-06-10T13:32:44.198Z,26.31
2014-06-10T13:33:49.201Z,26.07
2014-06-10T13:34:53.890Z,26.61
2014-06-10T13:35:58.596Z,26.77
2014-06-10T13:37:03.584Z,26.88
2014-06-10T13:38:08.586Z,26.58
2014-06-10T13:39:13.573Z,26.99
2014-06-10T13:40:18.262Z,26.56
2014-06-10T13:41:22.966Z,26.41
2014-06-10T13:42:27.672Z,27.9
2014-06-10T13:43:32.673Z,27.48
2014-06-10T13:44:37.691Z,26.37
2014-06-10T13:45:42.694Z,26.62
2014-06-10T13:46:47.398Z,27.95
2014-06-10T13:47:52.119Z,27.37
2014-06-10T13:48:56.824Z,28
2014-06-10T13:50:01.826Z,27.64
2014-06-10T13:51:06.814Z,27.46
2014-06-10T13:52:11.816Z,27.46
2014-06-10T13:53:16.818Z,28.21
2014-06-10T13:54:21.508Z,28.2
2014-06-10T13:55:26.197Z,28.6
2014-06-10T13:56:30.903Z,27.65
2014-06-10T13:57:35.608Z,27.47